Aérodrome :







RETROUVEZ-NOUS SUR...

 
LOGIN :

S'inscrire | Disclaimer

   EN    FR    IT 

 









Légende :    VFR   VFR Marginal   IFR   IFR Intensif   IFR Très Intensif
Visi : 
Plafond : 
>= 8 km
>= 3000ft
5 à 8 km
1000 à 3000 ft
1500m à 5 km
500 à 1000 ft
800 à 1500m
200 à 500 ft
< 800m
< 200 ft
Symboles :   Orages  Brouillard  Fortes neiges  Fortes précipitations  Vent > 20 kt






- Altitude de l'aérodrome : 522 ft
- Code IATA : YBG


CYBG - CFB Bagotville

DERNIER METAR :
  • 300300Z 26006KT 25SM -SHRA SCT005 BKN012 OVC020 18/17 A2959 RMK SF3SC4SC1 CIG RAG SLP020

METARs EXPIRÉS :
  • 300223Z 28009KT 25SM -SHRA BKN013 OVC025 19/17 A2960 RMK SC6SC2 CIG RAG SLP024
  • 300200Z 18002KT 25SM BKN015 BKN021 OVC030 19/18 A2961 RMK SC5SC2SC2 CIG RAG SLP027
  • 300100Z 30005KT 25SM BKN017 OVC025 19/18 A2963 RMK SC5SC3 CVCTV CLDS EMBD SLP032
  • 300028Z 31003KT 20SM BKN020 OVC065 20/18 A2964 RMK SC6SC2 SLP035

TAF AMD TAF CYBG
Valide du 30 à 01h jusqu'au 31 à 00h UTC


300107Z 3001/3024 30005KT P6SM SCT012 OVC030
TEMPO 3001/3002 5SM -SHRA BR BKN012 OVC030
BECMG 3001/3002 27010KT
FM300200 27012KT 6SM -SHRA BR SCT008 OVC020
TEMPO 3002/3010 2SM SHRA BR BKN008 OVC020
FM301000 28012KT 6SM -SHRA BR FEW008 BKN015 OVC025
TEMPO 3010/3016 P6SM NSW SCT015 BKN025
FM301600 29012KT P6SM FEW015 BKN025
FM302000 29012KT P6SM BKN040 RMK NXT FCST BY 300600Z
FIR CZUL / Amérique du Nord



MET'MAP, la Météo Aéronautique d'un coup d'oeil ! - Copyright ORBIFLY Décembre 2007 - Disclaimer

ORBIFLY MET'MAP TEAM :

Programmation & Développement : Alexandra Zaïnal
Sur une idée originale de : Baudouin d'Aumeries
Assistance à la programmation : Marc-Olivier Méhu
Soutien technique & logistique : Manuel Goepfert

Contact : metmap@orbifly.com




SOURCES & CREDITS :

   NOAA